createdAt,value
2023-01-19T00:01:59.701Z,51.93
2023-01-19T00:04:28.467Z,51.54
2023-01-19T00:06:59.236Z,51.25
2023-01-19T00:09:33.456Z,51.65
2023-01-19T00:12:02.356Z,52.11
2023-01-19T00:14:31.238Z,51.76
2023-01-19T00:17:02.009Z,52.02
2023-01-19T00:19:31.219Z,52.12
2023-01-19T00:22:01.421Z,51.89
2023-01-19T00:24:30.178Z,51.23
2023-01-19T00:26:59.157Z,51.40
2023-01-19T00:29:30.879Z,51.06
2023-01-19T00:31:59.733Z,50.49
2023-01-19T00:34:37.097Z,50.12
2023-01-19T00:37:07.754Z,50.46
2023-01-19T00:39:36.818Z,50.33
2023-01-19T00:42:22.931Z,50.25
2023-01-19T00:44:51.797Z,50.20
2023-01-19T00:47:20.617Z,49.64
2023-01-19T00:49:49.445Z,49.34
2023-01-19T00:52:19.786Z,49.35
2023-01-19T00:54:48.657Z,48.54
2023-01-19T00:57:19.289Z,48.84
2023-01-19T00:59:48.295Z,48.16
2023-01-19T01:02:17.379Z,48.24
2023-01-19T01:04:46.355Z,49.04
2023-01-19T01:07:15.233Z,49.73
2023-01-19T01:09:45.528Z,49.77
2023-01-19T01:12:14.355Z,49.57
2023-01-19T01:14:43.434Z,49.27
2023-01-19T01:17:14.290Z,49.58
2023-01-19T01:19:43.346Z,49.32
2023-01-19T01:22:12.169Z,49.67
2023-01-19T01:24:41.159Z,49.91
2023-01-19T01:27:13.260Z,49.50
2023-01-19T01:29:46.546Z,50.12
2023-01-19T01:32:16.730Z,49.99
2023-01-19T01:34:45.551Z,50.07
2023-01-19T01:37:14.423Z,49.46
2023-01-19T01:39:43.276Z,49.60
2023-01-19T01:42:18.685Z,49.59
2023-01-19T01:44:53.349Z,49.45
2023-01-19T01:47:32.109Z,49.93
2023-01-19T01:50:06.164Z,50.44
2023-01-19T01:52:39.109Z,50.44
2023-01-19T01:55:09.156Z,50.16
2023-01-19T01:57:43.269Z,49.91
2023-01-19T02:00:13.618Z,49.60
2023-01-19T02:02:55.122Z,49.71
2023-01-19T02:05:29.062Z,49.74
2023-01-19T02:08:21.814Z,49.60
2023-01-19T02:11:08.349Z,49.43
2023-01-19T02:13:43.821Z,48.96
2023-01-19T02:16:13.593Z,49.18
2023-01-19T02:18:43.100Z,49.23
2023-01-19T02:21:18.975Z,49.81
2023-01-19T02:23:51.295Z,49.15
2023-01-19T02:26:23.315Z,48.87
2023-01-19T02:28:59.320Z,49.16
2023-01-19T02:31:31.139Z,48.87
2023-01-19T02:34:02.050Z,49.25
2023-01-19T02:36:36.070Z,49.75
2023-01-19T02:39:07.308Z,50.77
2023-01-19T02:41:42.001Z,50.42
2023-01-19T02:44:12.454Z,49.63
2023-01-19T02:46:41.820Z,50.20
2023-01-19T02:49:10.691Z,49.94
2023-01-19T02:51:39.478Z,49.50
2023-01-19T02:54:38.559Z,49.26
2023-01-19T02:57:22.700Z,49.35
2023-01-19T03:00:03.747Z,49.86
2023-01-19T03:02:45.089Z,49.62
2023-01-19T03:05:34.237Z,50.62
2023-01-19T03:08:14.480Z,50.38
2023-01-19T03:10:51.026Z,50.31
2023-01-19T03:13:27.818Z,50.72
2023-01-19T03:16:00.585Z,51.17
2023-01-19T03:18:32.336Z,51.34
2023-01-19T03:21:05.328Z,51.53
2023-01-19T03:23:37.742Z,51.58
2023-01-19T03:26:12.094Z,52.12
2023-01-19T03:28:43.426Z,52.21
2023-01-19T03:31:17.631Z,52.12
2023-01-19T03:33:49.986Z,52.08
2023-01-19T03:36:24.633Z,51.84
2023-01-19T03:38:55.845Z,51.54
2023-01-19T03:41:28.950Z,51.43
2023-01-19T03:44:00.163Z,51.09
2023-01-19T03:46:30.063Z,50.68
2023-01-19T03:48:59.934Z,51.00
2023-01-19T03:51:29.661Z,51.28
2023-01-19T03:53:58.477Z,51.36
2023-01-19T03:56:28.642Z,51.60
2023-01-19T03:58:57.477Z,51.62
2023-01-19T04:01:26.408Z,52.15
2023-01-19T04:03:55.553Z,52.74
2023-01-19T04:06:24.623Z,52.75
2023-01-19T04:08:54.036Z,53.43
2023-01-19T04:11:22.895Z,53.78
2023-01-19T04:13:53.175Z,53.66
2023-01-19T04:16:22.031Z,52.98
2023-01-19T04:18:52.660Z,53.13
2023-01-19T04:21:21.595Z,52.93
2023-01-19T04:23:50.872Z,52.25
2023-01-19T04:26:19.757Z,52.76
2023-01-19T04:28:48.770Z,54.92
2023-01-19T04:31:19.453Z,53.98
2023-01-19T04:33:48.367Z,54.09
2023-01-19T04:36:17.473Z,54.31
2023-01-19T04:38:46.696Z,54.70
2023-01-19T04:41:15.582Z,55.31
2023-01-19T04:43:44.435Z,56.15
2023-01-19T04:46:13.334Z,57.95
2023-01-19T04:48:43.611Z,57.23
2023-01-19T04:51:12.541Z,56.13
2023-01-19T04:53:41.345Z,55.41
2023-01-19T04:56:10.140Z,55.97
2023-01-19T04:58:38.927Z,56.93
2023-01-19T05:01:09.850Z,57.35
2023-01-19T05:03:38.745Z,57.48
2023-01-19T05:06:09.283Z,56.57
2023-01-19T05:08:38.229Z,56.23
2023-01-19T05:11:07.082Z,55.84
2023-01-19T05:13:35.886Z,56.01
2023-01-19T05:16:06.298Z,56.64
2023-01-19T05:18:37.075Z,56.62
2023-01-19T05:21:06.902Z,55.77
2023-01-19T05:23:37.290Z,53.97
2023-01-19T05:26:06.793Z,53.50
2023-01-19T05:28:36.246Z,52.59
2023-01-19T05:31:05.213Z,52.59
2023-01-19T05:33:34.119Z,52.38
2023-01-19T05:36:04.318Z,52.27
2023-01-19T05:38:36.269Z,51.67
2023-01-19T05:41:06.901Z,51.56
2023-01-19T05:43:35.673Z,51.21
2023-01-19T05:46:05.465Z,51.47
2023-01-19T05:48:34.301Z,51.16
2023-01-19T05:51:05.047Z,51.36
2023-01-19T05:53:33.903Z,51.21
2023-01-19T05:56:04.033Z,51.03
2023-01-19T05:58:35.442Z,51.40
2023-01-19T06:01:05.873Z,51.77
2023-01-19T06:03:36.407Z,52.38
2023-01-19T06:06:05.620Z,52.02
2023-01-19T06:08:34.548Z,52.48
2023-01-19T06:11:03.353Z,52.69
2023-01-19T06:13:32.191Z,52.48
2023-01-19T06:16:03.300Z,52.87
2023-01-19T06:18:32.205Z,52.57
2023-01-19T06:21:04.656Z,54.24
2023-01-19T06:23:34.801Z,51.84
2023-01-19T06:26:04.114Z,52.15
2023-01-19T06:28:33.030Z,51.50
2023-01-19T06:31:03.747Z,52.60
2023-01-19T06:33:32.936Z,51.00
2023-01-19T06:36:02.090Z,50.21
2023-01-19T06:38:30.921Z,49.14
2023-01-19T06:41:00.125Z,49.82
2023-01-19T06:43:30.067Z,49.33
2023-01-19T06:46:00.568Z,48.66
2023-01-19T06:48:31.062Z,48.02
2023-01-19T06:51:00.083Z,47.73
2023-01-19T06:53:30.303Z,48.36
2023-01-19T06:56:04.381Z,46.91
2023-01-19T06:58:34.886Z,46.31
2023-01-19T07:01:04.478Z,46.15
2023-01-19T07:03:36.123Z,45.86
2023-01-19T07:06:06.700Z,45.91
2023-01-19T07:08:35.677Z,45.68
2023-01-19T07:11:24.990Z,44.96
2023-01-19T07:13:56.210Z,44.66
2023-01-19T07:16:25.403Z,43.70
2023-01-19T07:18:55.647Z,44.34
2023-01-19T07:21:25.088Z,43.83
2023-01-19T07:23:54.276Z,43.08
2023-01-19T07:26:25.156Z,43.17
2023-01-19T07:28:53.976Z,42.84
2023-01-19T07:31:22.923Z,42.08
2023-01-19T07:33:51.894Z,41.96
2023-01-19T07:36:22.227Z,41.61
2023-01-19T07:38:51.051Z,40.93
2023-01-19T07:41:19.927Z,40.99
2023-01-19T07:43:51.354Z,40.55
2023-01-19T07:46:20.292Z,40.68
2023-01-19T07:48:49.270Z,40.59
2023-01-19T07:51:19.094Z,40.22
2023-01-19T07:53:51.175Z,40.38
2023-01-19T07:56:20.009Z,40.15
2023-01-19T07:58:50.425Z,40.09
2023-01-19T08:01:19.408Z,40.35
2023-01-19T08:03:49.175Z,40.11
2023-01-19T08:06:22.626Z,39.92
2023-01-19T08:08:53.292Z,39.65
2023-01-19T08:11:22.110Z,39.57
2023-01-19T08:13:50.946Z,38.88
2023-01-19T08:16:19.904Z,39.05
2023-01-19T08:18:48.735Z,39.12
2023-01-19T08:21:17.882Z,38.91
2023-01-19T08:23:55.121Z,38.35
2023-01-19T08:26:29.870Z,38.19
2023-01-19T08:29:00.812Z,37.43
2023-01-19T08:31:30.182Z,37.18
2023-01-19T08:33:59.358Z,36.86
2023-01-19T08:36:28.257Z,35.95
2023-01-19T08:38:58.479Z,36.24
2023-01-19T08:41:27.612Z,36.54
2023-01-19T08:43:56.519Z,36.24
2023-01-19T08:46:25.459Z,35.63
2023-01-19T08:48:55.009Z,35.78
2023-01-19T08:51:24.012Z,34.97
2023-01-19T08:53:53.020Z,34.45
2023-01-19T08:56:23.242Z,34.40
2023-01-19T08:59:07.650Z,34.13
2023-01-19T09:01:38.201Z,34.18
2023-01-19T09:04:07.402Z,34.45
2023-01-19T09:06:36.241Z,35.44
2023-01-19T09:09:05.283Z,34.63
2023-01-19T09:11:35.503Z,34.69
2023-01-19T09:14:05.714Z,34.11
2023-01-19T09:16:34.502Z,34.59
2023-01-19T09:19:03.393Z,35.07
2023-01-19T09:21:32.216Z,34.17
2023-01-19T09:24:01.008Z,34.16
2023-01-19T09:26:31.633Z,34.03
2023-01-19T09:29:03.628Z,33.93
2023-01-19T09:31:32.864Z,33.75
2023-01-19T09:34:01.726Z,34.04
2023-01-19T09:36:31.034Z,33.98
2023-01-19T09:38:59.811Z,34.18
2023-01-19T09:41:28.913Z,34.85
2023-01-19T09:44:00.638Z,35.80
2023-01-19T09:46:38.864Z,35.63
2023-01-19T09:49:15.195Z,34.31
2023-01-19T09:51:47.648Z,34.04
2023-01-19T09:54:18.272Z,34.06
2023-01-19T09:56:52.232Z,34.19
2023-01-19T09:59:25.199Z,34.42
2023-01-19T10:02:07.799Z,35.03
2023-01-19T10:04:41.992Z,34.50
2023-01-19T10:07:17.398Z,34.04
2023-01-19T10:09:57.972Z,34.53
2023-01-19T10:12:37.991Z,34.54
2023-01-19T10:15:18.875Z,34.02
2023-01-19T10:18:00.807Z,33.57
2023-01-19T10:20:34.455Z,34.40
2023-01-19T10:23:06.706Z,33.82
2023-01-19T10:25:35.697Z,33.73
2023-01-19T10:28:04.818Z,33.99
2023-01-19T10:30:33.799Z,33.61
2023-01-19T10:33:05.153Z,33.15
2023-01-19T10:35:33.962Z,33.85
2023-01-19T10:38:04.378Z,34.33
2023-01-19T10:40:38.380Z,34.21
2023-01-19T10:43:42.834Z,34.67
2023-01-19T10:46:24.622Z,33.45
2023-01-19T10:48:56.328Z,32.78
2023-01-19T10:51:25.325Z,34.31
2023-01-19T10:54:00.295Z,34.61
2023-01-19T10:56:33.059Z,35.24
2023-01-19T10:59:04.354Z,35.20
2023-01-19T11:01:37.100Z,35.31
2023-01-19T11:04:28.342Z,34.67
2023-01-19T11:07:15.228Z,34.45
2023-01-19T11:09:44.124Z,34.21
2023-01-19T11:12:21.784Z,34.50
2023-01-19T11:14:53.563Z,34.54
2023-01-19T11:17:25.782Z,33.73
2023-01-19T11:19:59.502Z,34.10
2023-01-19T11:22:31.553Z,33.98
2023-01-19T11:25:02.271Z,34.16
2023-01-19T11:27:35.664Z,32.93
2023-01-19T11:30:10.533Z,33.24
2023-01-19T11:32:39.541Z,33.21
2023-01-19T11:35:37.834Z,33.06
2023-01-19T11:38:20.983Z,32.65
2023-01-19T11:40:54.844Z,32.76
2023-01-19T11:43:26.850Z,31.17
2023-01-19T11:45:58.298Z,30.85
2023-01-19T11:48:34.430Z,30.58
2023-01-19T11:51:13.292Z,29.88
2023-01-19T11:53:47.439Z,30.25
2023-01-19T11:56:17.323Z,30.14
2023-01-19T11:58:47.497Z,30.87
2023-01-19T12:01:24.652Z,31.22
2023-01-19T12:03:59.977Z,31.69
2023-01-19T12:06:33.164Z,31.29
2023-01-19T12:09:07.104Z,30.62
2023-01-19T12:11:39.248Z,30.38
2023-01-19T12:14:16.719Z,30.12
2023-01-19T12:16:47.642Z,29.66
2023-01-19T12:19:19.377Z,30.27
2023-01-19T12:21:50.044Z,30.42
2023-01-19T12:24:27.448Z,30.59
2023-01-19T12:26:58.954Z,30.60
2023-01-19T12:29:32.539Z,30.81
2023-01-19T12:32:33.175Z,30.39
2023-01-19T12:35:01.989Z,30.87
2023-01-19T12:37:40.803Z,30.54
2023-01-19T12:40:23.116Z,30.27
2023-01-19T12:43:01.811Z,30.47
2023-01-19T12:45:33.181Z,31.26
2023-01-19T12:48:03.274Z,30.81
2023-01-19T12:50:37.909Z,30.62
2023-01-19T12:53:20.520Z,29.59
2023-01-19T12:56:00.190Z,28.29
2023-01-19T12:58:29.987Z,29.33
2023-01-19T13:01:15.992Z,29.55
2023-01-19T13:03:58.438Z,30.10
2023-01-19T13:07:18.079Z,30.31
2023-01-19T13:09:48.234Z,30.54
2023-01-19T13:12:25.972Z,30.23
2023-01-19T13:15:28.048Z,30.62
2023-01-19T13:17:57.861Z,30.79
2023-01-19T13:20:29.541Z,30.96
2023-01-19T13:23:23.657Z,31.41
2023-01-19T13:26:00.131Z,30.29
2023-01-19T13:28:34.848Z,30.66
2023-01-19T13:31:05.158Z,31.22
2023-01-19T13:33:44.892Z,31.22
2023-01-19T13:36:22.702Z,30.32
2023-01-19T13:38:52.860Z,30.71
2023-01-19T13:41:27.182Z,30.55
2023-01-19T13:44:02.574Z,29.60
2023-01-19T13:46:33.631Z,30.90
2023-01-19T13:49:10.997Z,31.14
2023-01-19T13:51:39.807Z,30.88
2023-01-19T13:54:16.983Z,30.38
2023-01-19T13:56:50.365Z,30.05
2023-01-19T13:59:19.178Z,30.27
2023-01-19T14:01:51.106Z,29.80
2023-01-19T14:04:28.601Z,28.96
2023-01-19T14:07:00.380Z,29.13
2023-01-19T14:09:29.667Z,30.44
2023-01-19T14:12:25.724Z,29.73
2023-01-19T14:14:54.640Z,29.35
2023-01-19T14:17:29.073Z,30.15
2023-01-19T14:20:00.955Z,30.60
2023-01-19T14:22:41.294Z,30.94
2023-01-19T14:25:27.450Z,30.76
2023-01-19T14:28:40.501Z,30.87
2023-01-19T14:31:23.192Z,31.45
2023-01-19T14:33:53.632Z,31.70
2023-01-19T14:36:30.215Z,32.54
2023-01-19T14:39:01.252Z,33.31
2023-01-19T14:41:38.747Z,33.30
2023-01-19T14:44:18.208Z,33.80
2023-01-19T14:46:49.087Z,33.98
2023-01-19T14:49:23.358Z,34.42
2023-01-19T14:51:52.737Z,34.85
2023-01-19T14:54:30.415Z,34.80
2023-01-19T14:56:59.519Z,35.11
2023-01-19T14:59:29.782Z,35.27
2023-01-19T15:01:59.816Z,35.12
2023-01-19T15:04:29.542Z,36.13
2023-01-19T15:06:59.451Z,36.05
2023-01-19T15:09:28.411Z,36.70
2023-01-19T15:11:57.339Z,36.26
2023-01-19T15:14:27.863Z,36.06
2023-01-19T15:16:59.118Z,36.25
2023-01-19T15:19:27.938Z,36.66
2023-01-19T15:21:56.719Z,37.32
2023-01-19T15:24:25.511Z,37.41
2023-01-19T15:26:54.394Z,37.38
2023-01-19T15:29:25.674Z,37.97
2023-01-19T15:31:54.608Z,37.71
2023-01-19T15:34:24.937Z,37.94
2023-01-19T15:36:53.957Z,38.60
2023-01-19T15:39:23.185Z,39.06
2023-01-19T15:41:51.985Z,38.92
2023-01-19T15:44:20.763Z,39.22
2023-01-19T15:46:49.903Z,38.87
2023-01-19T15:49:18.862Z,39.29
2023-01-19T15:51:49.051Z,39.53
2023-01-19T15:54:17.986Z,39.95
2023-01-19T15:56:46.856Z,40.11
2023-01-19T15:59:15.760Z,39.86
2023-01-19T16:01:44.745Z,39.89
2023-01-19T16:04:13.704Z,39.63
2023-01-19T16:06:42.648Z,39.57
2023-01-19T16:09:16.846Z,39.81
2023-01-19T16:11:45.918Z,39.93
2023-01-19T16:14:17.268Z,39.92
2023-01-19T16:16:46.378Z,39.65
2023-01-19T16:19:15.853Z,39.79
2023-01-19T16:21:44.992Z,39.98
2023-01-19T16:24:15.225Z,39.61
2023-01-19T16:26:44.067Z,39.23
2023-01-19T16:29:13.228Z,40.30
2023-01-19T16:31:45.500Z,40.12
2023-01-19T16:34:14.566Z,40.08
2023-01-19T16:36:43.690Z,40.32
2023-01-19T16:39:14.464Z,40.52
2023-01-19T16:41:45.893Z,40.62
2023-01-19T16:44:17.388Z,40.64
2023-01-19T16:46:49.801Z,40.43
2023-01-19T16:49:20.395Z,40.08
2023-01-19T16:51:49.649Z,40.59
2023-01-19T16:54:20.746Z,40.72
2023-01-19T16:56:51.267Z,40.38
2023-01-19T16:59:22.051Z,40.21
2023-01-19T17:01:52.136Z,39.96
2023-01-19T17:04:22.667Z,40.00
2023-01-19T17:06:51.615Z,39.77
2023-01-19T17:09:20.726Z,39.95
2023-01-19T17:11:51.026Z,40.13
2023-01-19T17:14:21.447Z,40.68
2023-01-19T17:16:51.071Z,40.39
2023-01-19T17:19:22.040Z,40.15
2023-01-19T17:21:51.747Z,39.86
2023-01-19T17:24:20.824Z,39.74
2023-01-19T17:26:51.084Z,40.22
2023-01-19T17:29:20.013Z,39.62
2023-01-19T17:31:51.373Z,39.05
2023-01-19T17:34:20.163Z,39.94
2023-01-19T17:36:51.633Z,40.22
2023-01-19T17:39:20.761Z,40.50
2023-01-19T17:41:51.236Z,40.20
2023-01-19T17:44:20.179Z,40.44
2023-01-19T17:46:49.150Z,40.77
2023-01-19T17:49:18.012Z,40.88
2023-01-19T17:51:47.093Z,40.60
2023-01-19T17:54:15.898Z,40.59
2023-01-19T17:56:44.774Z,40.54
2023-01-19T17:59:15.031Z,40.16
2023-01-19T18:01:45.084Z,40.17
2023-01-19T18:04:14.016Z,40.02
2023-01-19T18:06:42.940Z,40.06
2023-01-19T18:09:13.328Z,39.79
2023-01-19T18:11:42.817Z,39.88
2023-01-19T18:14:11.713Z,39.83
2023-01-19T18:16:41.944Z,41.19
2023-01-19T18:19:10.855Z,41.49
2023-01-19T18:21:39.677Z,42.47
2023-01-19T18:24:09.103Z,44.00
2023-01-19T18:26:39.038Z,45.47
2023-01-19T18:29:07.930Z,46.08
2023-01-19T18:31:36.993Z,46.67
2023-01-19T18:34:07.294Z,46.76
2023-01-19T18:36:37.250Z,45.63
2023-01-19T18:39:06.042Z,44.82
2023-01-19T18:41:39.727Z,44.73
2023-01-19T18:44:09.113Z,44.68
2023-01-19T18:46:38.159Z,44.85
2023-01-19T18:49:08.437Z,44.76
2023-01-19T18:51:39.611Z,45.27
2023-01-19T18:54:09.424Z,45.67
2023-01-19T18:56:38.400Z,48.02
2023-01-19T18:59:07.252Z,50.09
2023-01-19T19:01:36.526Z,52.99
2023-01-19T19:04:05.873Z,53.70
2023-01-19T19:06:36.161Z,53.84
2023-01-19T19:09:05.258Z,55.69
2023-01-19T19:11:34.150Z,56.52
2023-01-19T19:14:04.983Z,56.38
2023-01-19T19:16:36.194Z,56.56
2023-01-19T19:19:05.722Z,56.93
2023-01-19T19:21:35.927Z,56.34
2023-01-19T19:24:05.016Z,55.46
2023-01-19T19:26:33.803Z,53.77
2023-01-19T19:29:03.443Z,53.88
2023-01-19T19:31:32.480Z,54.59
2023-01-19T19:34:01.383Z,55.47
2023-01-19T19:36:30.225Z,56.46
2023-01-19T19:39:02.063Z,56.48
2023-01-19T19:41:32.322Z,57.29
2023-01-19T19:44:02.371Z,56.81
2023-01-19T19:46:31.219Z,56.78
2023-01-19T19:49:00.096Z,56.18
2023-01-19T19:51:30.026Z,56.49
2023-01-19T19:54:00.162Z,57.09
2023-01-19T19:56:34.363Z,56.73
2023-01-19T19:59:03.856Z,56.61
2023-01-19T20:01:34.035Z,56.38
2023-01-19T20:04:09.107Z,56.47
2023-01-19T20:06:40.722Z,57.11
2023-01-19T20:09:12.663Z,57.62
2023-01-19T20:11:44.317Z,58.52
2023-01-19T20:14:16.212Z,56.90
2023-01-19T20:16:45.492Z,55.76
2023-01-19T20:19:14.342Z,54.50
2023-01-19T20:21:43.934Z,54.73
2023-01-19T20:24:15.550Z,55.19
2023-01-19T20:26:47.851Z,56.90
2023-01-19T20:29:17.060Z,57.67
2023-01-19T20:31:47.572Z,60.07
2023-01-19T20:34:19.459Z,62.63
2023-01-19T20:36:50.276Z,63.13
2023-01-19T20:39:19.978Z,61.05
2023-01-19T20:41:51.452Z,61.31
2023-01-19T20:44:22.471Z,60.73
2023-01-19T20:46:52.197Z,61.18
2023-01-19T20:49:21.169Z,62.79
2023-01-19T20:51:52.153Z,63.60
2023-01-19T20:54:23.065Z,63.57
2023-01-19T20:56:53.627Z,64.31
2023-01-19T20:59:22.828Z,64.31
2023-01-19T21:01:51.703Z,63.09
2023-01-19T21:04:20.704Z,61.59
2023-01-19T21:06:49.672Z,63.19
2023-01-19T21:09:19.053Z,64.01
2023-01-19T21:11:47.917Z,63.11
2023-01-19T21:14:18.220Z,62.54
2023-01-19T21:16:47.222Z,62.47
2023-01-19T21:19:16.204Z,64.07
2023-01-19T21:21:45.008Z,63.89
2023-01-19T21:24:13.908Z,63.56
2023-01-19T21:26:42.846Z,63.44
2023-01-19T21:29:13.482Z,64.61
2023-01-19T21:31:43.794Z,66.12
2023-01-19T21:34:12.611Z,67.43
2023-01-19T21:36:41.924Z,66.65
2023-01-19T21:39:10.728Z,67.01
2023-01-19T21:41:42.348Z,67.95
2023-01-19T21:44:12.742Z,67.11
2023-01-19T21:46:41.618Z,66.79
2023-01-19T21:49:18.113Z,65.17
2023-01-19T21:51:48.328Z,65.34
2023-01-19T21:54:17.655Z,64.69
2023-01-19T21:56:46.547Z,64.43
2023-01-19T21:59:16.615Z,64.22
2023-01-19T22:01:47.251Z,63.95
2023-01-19T22:04:17.542Z,63.11
2023-01-19T22:06:46.447Z,63.22
2023-01-19T22:09:15.371Z,62.64
2023-01-19T22:11:44.216Z,61.96
2023-01-19T22:14:13.098Z,61.28
2023-01-19T22:16:41.930Z,61.46
2023-01-19T22:19:14.451Z,60.48
2023-01-19T22:21:44.785Z,60.60
2023-01-19T22:24:13.913Z,59.93
2023-01-19T22:26:42.856Z,60.22
2023-01-19T22:29:13.331Z,60.58
2023-01-19T22:31:43.219Z,59.94
2023-01-19T22:34:12.222Z,60.52
2023-01-19T22:36:41.115Z,59.90
2023-01-19T22:39:13.627Z,60.83
2023-01-19T22:41:44.284Z,61.58
2023-01-19T22:44:15.474Z,62.00
2023-01-19T22:46:45.140Z,61.29
2023-01-19T22:49:16.396Z,62.08
2023-01-19T22:51:46.205Z,63.29
2023-01-19T22:54:16.624Z,64.02
2023-01-19T22:56:45.879Z,64.57
2023-01-19T22:59:14.791Z,65.88
2023-01-19T23:01:44.801Z,65.54
2023-01-19T23:04:15.787Z,65.83
2023-01-19T23:06:46.966Z,64.65
2023-01-19T23:09:17.667Z,63.67
2023-01-19T23:11:50.630Z,62.63
2023-01-19T23:14:22.132Z,62.10
2023-01-19T23:16:51.066Z,62.04
2023-01-19T23:19:20.362Z,61.55
2023-01-19T23:21:52.411Z,61.12
2023-01-19T23:24:22.683Z,61.00
2023-01-19T23:26:52.086Z,60.81
2023-01-19T23:29:20.956Z,59.83
2023-01-19T23:31:50.634Z,60.11
2023-01-19T23:34:19.523Z,59.63
2023-01-19T23:36:48.519Z,59.99
2023-01-19T23:39:19.069Z,59.61
2023-01-19T23:41:50.362Z,58.11
2023-01-19T23:44:19.515Z,58.46
2023-01-19T23:46:48.367Z,58.05
2023-01-19T23:49:18.215Z,57.35
2023-01-19T23:51:47.034Z,57.28
2023-01-19T23:54:15.953Z,55.95
2023-01-19T23:56:44.819Z,55.65
2023-01-19T23:59:16.699Z,55.07
